Latest Coastal Weather Observations for Bellambi

IDN60701

Issued at 2:12 pm EDT Tuesday 3 March 2015 (issued every 10 minutes, with the page automatically refreshed every 10 minutes)

About coastal observations | Map of coastal stations | Coastal observations for NSW | Marine services | Other Formats
Station Details ID: 068228 Name: BELLAMBI AWS Lat: -34.37 Lon: 150.93 Height: 10.0 m
Data from the previous 72 hours. | See also: Recent months at Bellambi
Date/Time
EDT
Temp

°C
Wind Pressure Rain
since 9am
mm
Weather Cloud Vis
km
Sea
Height
m
Swell
Dir
 
Speed
knots
Gust
knots
hPa Trend Height
m
Period
s
Dir
03/02:00pm 24.6 NE 11 14 - - 0.0 - - - - - - -
03/01:30pm 24.2 NE 15 17 - - 0.0 - - - - - - -
03/01:00pm 24.1 ENE 16 19 - - 0.0 - - - - - - -
03/12:30pm 24.7 ENE 12 14 - - 0.0 - - - - - - -
03/12:00pm 24.5 NE 12 14 - - 0.0 - - - - - - -
03/11:30am 24.5 NE 11 13 - - 0.0 - - - - - - -
03/11:00am 24.3 NE 9 12 - - 0.0 - - - - - - -
03/10:30am 23.7 NNE 7 11 - - 0.0 - - - - - - -
03/10:00am 22.9 N 9 14 - - 0.0 - - - - - - -
03/09:30am 22.2 N 8 12 - - 0.0 - - - - - - -
03/09:00am 21.4 N 9 14 - - 0.0 - - - - - - -
03/08:30am 21.0 N 11 15 - - 0.0 - - - - - - -
03/08:00am 20.1 NNW 13 15 - - 0.0 - - - - - - -
03/07:30am 19.6 NNW 11 15 - - 0.0 - - - - - - -
03/07:00am 19.0 NW 10 13 - - 0.0 - - - - - - -
03/06:30am 18.5 NW 8 9 - - 0.0 - - - - - - -
03/06:00am 18.6 NW 7 10 - - 0.0 - - - - - - -
03/05:30am 18.6 NW 8 10 - - 0.0 - - - - - - -
03/05:00am 18.8 NW 8 9 - - 0.0 - - - - - - -
03/04:30am 18.8 NW 7 9 - - 0.0 - - - - - - -
03/04:00am 19.2 NW 9 11 - - 0.0 - - - - - - -
03/03:30am 19.9 N 7 9 - - 0.0 - - - - - - -
03/03:00am 20.0 NNW 8 10 - - 0.0 - - - - - - -
03/02:30am 20.2 NNW 9 10 - - 0.0 - - - - - - -
03/02:00am 20.3 NNW 9 11 - - 0.0 - Partly cloudy - - - - -
03/01:30am 20.6 NNW 10 12 - - 0.0 - Cloudy - - - - -
03/01:00am 20.5 N 8 10 - - 0.0 - Cloudy - - - - -
03/12:30am 20.5 N 10 12 - - 0.0 - Cloudy - - - - -
 
Date/Time
EDT
Temp

°C
Wind Pressure Rain
since 9am
mm
Weather Cloud Vis
km
Sea
Height
m
Swell
Dir
 
Speed
knots
Gust
knots
hPa Trend Height
m
Period
s
Dir
02/11:30pm 20.6 NNW 7 8 - - 0.0 - Cloudy - - - - -
02/11:00pm 20.5 NNW 7 8 - - 0.0 - Partly cloudy - - - - -
02/10:30pm 20.3 NNW 7 8 - - 0.0 - Partly cloudy - - - - -
02/10:00pm 20.5 NNW 7 8 - - 0.0 - Partly cloudy - - - - -
02/09:30pm 20.6 NNW 7 8 - - 0.0 - Cloudy - - - - -
02/09:00pm 20.8 NNW 5 6 - - 0.0 - Mostly cloudy - - - - -
02/08:30pm 20.7 NW 3 4 - - 0.0 - Cloudy - - - - -
02/08:00pm 20.7 CALM 0 0 - - 0.0 - Cloudy - - - - -
02/07:30pm 20.8 CALM 0 0 - - 0.0 - Partly cloudy - - - - -
02/07:00pm 21.1 CALM 0 0 - - 0.0 - Partly cloudy - - - - -
02/06:30pm 21.3 SSW 4 5 - - 0.0 - Cloudy - - - - -
02/06:00pm 21.4 SSW 4 6 - - 0.0 - Cloudy - - - - -
02/05:30pm 21.4 SSW 4 6 - - 0.0 - Cloudy - - - - -
02/05:00pm 21.6 S 5 6 - - 0.0 - Partly cloudy - - - - -
02/04:30pm 21.3 S 5 7 - - 0.0 - Partly cloudy - - - - -
02/04:00pm 21.4 S 6 9 - - 0.0 - Partly cloudy - - - - -
02/03:30pm 21.2 SSW 7 9 - - 0.0 - Partly cloudy - - - - -
02/03:00pm 21.0 SSW 8 10 - - 0.0 - Cloudy - - - - -
02/02:30pm 21.1 S 9 10 - - 0.0 - Cloudy - - - - -
02/02:00pm 21.5 S 9 12 - - 0.0 - Partly cloudy - - - - -
02/01:30pm 21.1 S 10 12 - - 0.0 - Cloudy - - - - -
02/01:00pm 21.1 S 12 14 - - 0.0 - Cloudy - - - - -
02/12:30pm 20.6 S 13 16 - - 0.0 - Cloudy - - - - -
02/12:00pm 20.8 S 13 15 - - 0.0 - Cloudy - - - - -
02/11:30am 20.7 S 12 15 - - 0.0 - Partly cloudy - - - - -
02/11:00am 20.9 S 12 15 - - 0.0 - Partly cloudy - - - - -
02/10:30am 20.6 S 14 17 - - 0.0 - Partly cloudy - - - - -
02/10:00am 21.0 SSW 11 14 - - 0.0 - - - - - - -
02/09:30am 20.4 SW 11 14 - - 0.0 - - - - - - -
02/09:00am 19.6 SSW 13 17 - - 19.4 - - - - - - -
02/08:30am 19.1 SSW 14 20 - - 19.4 - Partly cloudy - - - - -
02/08:00am 18.3 SW 11 15 - - 19.4 - Partly cloudy - - - - -
02/07:30am 17.6 SW 11 14 - - 19.4 - Partly cloudy - - - - -
02/07:00am 17.2 SW 10 13 - - 19.4 - Partly cloudy - - - - -
02/06:30am 17.2 SW 11 15 - - 19.4 - - - - - - -
02/06:00am 17.0 SW 9 12 - - 19.4 - - - - - - -
02/05:30am 16.9 SW 9 12 - - 19.4 - Partly cloudy - - - - -
02/05:00am 17.1 SW 9 12 - - 19.4 - - - - - - -
02/04:30am 17.1 SW 10 12 - - 19.4 - Partly cloudy - - - - -
02/04:00am 17.1 SW 9 13 - - 19.4 - - - - - - -
02/03:30am 17.7 SW 9 12 - - 19.4 - Cloudy - - - - -
02/03:00am 18.3 SW 12 18 - - 19.4 - Mostly cloudy - - - - -
02/02:30am 18.8 SSW 17 23 - - 19.4 - Partly cloudy - - - - -
02/02:00am 19.1 SSW 18 23 - - 19.4 - Cloudy - - - - -
02/01:30am 19.8 SSW 21 26 - - 19.4 - Partly cloudy - - - - -
02/01:00am 20.4 S 25 30 - - 19.4 - Partly cloudy - - - - -
02/12:30am 20.5 S 25 31 - - 19.4 - Partly cloudy - - - - -
02/12:00am 20.6 S 27 32 - - 19.4 - Cloudy - - - - -
 
Date/Time
EDT
Temp

°C
Wind Pressure Rain
since 9am
mm
Weather Cloud Vis
km
Sea
Height
m
Swell
Dir
 
Speed
knots
Gust
knots
hPa Trend Height
m
Period
s
Dir
01/11:30pm 20.6 S 26 32 - - 19.4 - Partly cloudy - - - - -
01/11:10pm 20.7 SSW 24 34 - - 19.4 - Partly cloudy - - - - -
01/11:00pm 20.5 SSW 23 31 - - 19.4 - Partly cloudy - - - - -
01/10:30pm 20.8 S 27 35 - - 19.4 - Partly cloudy - - - - -
01/10:23pm 20.9 SSW 24 35 - - 19.4 - Partly cloudy - - - - -
01/10:00pm 21.0 S 25 31 - - 19.4 - Partly cloudy - - - - -
01/09:31pm 21.1 S 25 35 - - 19.4 - Cloudy - - - - -
01/09:30pm 21.1 S 24 33 - - 19.4 - Cloudy - - - - -
01/09:13pm 20.8 SSW 24 34 - - 19.4 - Partly cloudy - - - - -
01/09:00pm 21.1 SSW 23 32 - - 19.4 - Cloudy - - - - -
01/08:30pm 20.7 SSW 21 28 - - 19.4 - Cloudy - - - - -
01/08:00pm 20.5 SSW 24 34 - - 19.4 - Partly cloudy - - - - -
01/07:58pm 20.5 SSW 24 34 - - 19.4 - Partly cloudy - - - - -
01/07:30pm 20.3 SSW 22 26 - - 19.4 - Partly cloudy - - - - -
01/07:15pm 20.3 SSW 19 29 - - 19.4 - Partly cloudy - - - - -
01/07:00pm 20.2 SSW 23 31 - - 19.4 - Partly cloudy - - - - -
01/06:30pm 20.0 SSW 25 32 - - 19.4 - Partly cloudy - - - - -
01/06:00pm 20.0 SSW 32 43 - - 19.4 Recent precip. Cloudy - - - - -
01/05:36pm 20.0 SSW 27 37 - - 19.4 - Partly cloudy - - - - -
01/05:32pm 20.1 SSW 26 34 - - 19.4 - Partly cloudy - - - - -
01/05:30pm 20.3 SSW 26 34 - - 19.4 - Partly cloudy - - - - -
01/05:14pm 20.4 SSW 23 34 - - 18.8 - Partly cloudy - - - - -
01/05:00pm 20.2 SSW 18 25 - - 18.2 - Cloudy - - - - -
01/04:44pm 20.4 SSW 27 37 - - 17.0 - Cloudy - - - - -
01/04:30pm 21.0 SSW 29 37 - - 13.8 - Cloudy - - - - -
01/04:00pm 21.5 SSW 30 37 - - 13.8 - Cloudy - - - - -
01/03:34pm 22.1 SSW 27 38 - - 13.8 - Partly cloudy - - - - -
01/03:33pm 22.0 SSW 27 38 - - 13.8 - Partly cloudy - - - - -
01/03:30pm 21.9 SSW 25 38 - - 13.8 - Partly cloudy - - - - -
01/03:29pm 21.9 SSW 24 38 - - 13.8 - Partly cloudy - - - - -
01/03:22pm 21.1 SW 21 33 - - 12.6 - Partly cloudy - - - - -
01/03:17pm 20.6 SSW 28 41 - - 6.6 - Partly cloudy - - - - -
01/03:00pm 22.7 S 29 40 - - 1.2 Rain Mostly cloudy - - - - -
01/02:59pm 22.6 S 29 40 - - 1.2 - Partly cloudy - - - - -
01/02:50pm 23.3 SSW 27 34 - - 0.0 - Partly cloudy - - - - -
01/02:30pm 23.9 SSW 19 30 - - 0.0 - Partly cloudy - - - - -
01/02:23pm 24.8 NW 10 30 - - 0.0 - Partly cloudy - - - - -
01/02:22pm 24.8 NNW 8 23 - - 0.0 - Partly cloudy - - - - -
01/02:00pm 24.7 N 8 12 - - 0.0 - - - - - - -
01/01:30pm 24.5 ENE 15 18 - - 0.0 - - - - - - -
01/01:00pm 26.3 ENE 16 18 - - 0.0 - - - - - - -
01/12:30pm 26.8 ENE 12 16 - - 0.0 - - - - - - -
01/12:00pm 30.8 E 5 7 - - 0.0 - - - - - - -
01/11:30am 29.8 ENE 7 9 - - 0.0 - - - - - - -
01/11:00am 29.0 ESE 6 8 - - 0.0 - - - - - - -
01/10:30am 28.9 CALM 0 3 - - 0.0 - - - - - - -
01/10:00am 28.7 ENE 1 3 - - 0.0 - - - - - - -
01/09:30am 27.1 NNW 3 5 - - 0.0 - - - - - - -
01/09:00am 26.5 NNE 8 11 - - 0.0 - - - - - - -
01/08:30am 25.6 N 6 9 - - 0.0 - - - - - - -
01/08:00am 24.7 N 8 11 - - 0.0 - - - - - - -
01/07:30am 23.3 WNW 2 5 - - 0.0 - - - - - - -
01/07:00am 23.2 NW 4 8 - - 0.0 - - - - - - -
01/06:30am 22.4 E 1 4 - - 0.0 - - - - - - -
01/06:00am 22.6 WNW 5 8 - - 0.0 - - - - - - -
01/05:30am 23.0 NW 6 8 - - 0.0 - - - - - - -
01/05:00am 23.4 NW 8 14 - - 0.0 - - - - - - -
01/04:30am 23.2 NNW 8 13 - - 0.0 - - - - - - -
01/04:00am 23.5 NNW 7 12 - - 0.0 - - - - - - -
01/03:30am 23.4 N 8 15 - - 0.0 - - - - - - -
01/03:00am 22.5 WNW 1 4 - - 0.0 - - - - - - -
01/02:30am 23.6 N 11 13 - - 0.0 - - - - - - -
01/02:00am 23.6 NNW 12 15 - - 0.0 - - - - - - -
01/01:30am 23.5 N 11 14 - - 0.0 - - - - - - -
01/01:00am 23.0 NE 9 13 - - 0.0 - - - - - - -
01/12:30am 23.0 NE 10 13 - - 0.0 - - - - - - -
01/12:00am 22.9 NE 9 11 - - 0.0 - - - - - - -
 
Date/Time
EDT
Temp

°C
Wind Pressure Rain
since 9am
mm
Weather Cloud Vis
km
Sea
Height
m
Swell
Dir
 
Speed
knots
Gust
knots
hPa Trend Height
m
Period
s
Dir
28/11:30pm 22.8 N 8 10 - - 0.0 - - - - - - -
28/11:00pm 22.0 CALM 0 0 - - 0.0 - - - - - - -
28/10:30pm 22.4 CALM 0 0 - - 0.0 - - - - - - -
28/10:00pm 22.9 N 6 7 - - 0.0 - - - - - - -
28/09:30pm 22.9 N 5 6 - - 0.0 - - - - - - -
28/09:00pm 22.8 NE 8 10 - - 0.0 - - - - - - -
28/08:30pm 23.0 NE 11 13 - - 0.0 - - - - - - -
28/08:00pm 23.0 NNE 12 14 - - 0.0 - - - - - - -
28/07:30pm 23.1 NE 16 19 - - 0.0 - - - - - - -
28/07:00pm 23.3 NE 17 20 - - 0.0 - - - - - - -
28/06:30pm 23.4 NE 17 21 - - 0.0 - - - - - - -
28/06:00pm 23.7 NE 18 21 - - 0.0 - - - - - - -
28/05:30pm 23.9 NE 18 21 - - 0.0 - - - - - - -
28/05:00pm 24.1 NE 19 23 - - 0.0 - - - - - - -
28/04:30pm 24.9 NE 18 21 - - 0.0 - - - - - - -
28/04:00pm 24.7 NE 18 21 - - 0.0 - - - - - - -
28/03:30pm 25.1 NE 16 19 - - 0.0 - - - - - - -
28/03:00pm 24.5 NE 16 19 - - 0.0 - Cloudy - - - - -
28/02:30pm 24.3 NE 15 18 - - 0.0 - - - - - - -

Other Formats:

Comma delimited format used in spreadsheet applications
http://www.bom.gov.au/fwo/IDN60701/IDN60701.94749.axf

JavaScript Object Notation format (JSON) in row-major order
http://www.bom.gov.au/fwo/IDN60701/IDN60701.94749.json